sensor_id;sensor_type;location;lat;lon;timestamp;temperature;humidity
666;DHT22;315;48.738;9.126;2022-08-25T00:00:46;20.30;99.90
666;DHT22;315;48.738;9.126;2022-08-25T00:03:13;20.30;99.90
666;DHT22;315;48.738;9.126;2022-08-25T00:05:39;20.30;99.90
666;DHT22;315;48.738;9.126;2022-08-25T00:08:05;20.10;99.90
666;DHT22;315;48.738;9.126;2022-08-25T00:10:32;20.00;99.90
666;DHT22;315;48.738;9.126;2022-08-25T00:12:59;20.00;99.90
666;DHT22;315;48.738;9.126;2022-08-25T00:15:25;20.00;99.90
666;DHT22;315;48.738;9.126;2022-08-25T00:17:51;20.00;99.90
666;DHT22;315;48.738;9.126;2022-08-25T00:20:17;20.00;99.90
666;DHT22;315;48.738;9.126;2022-08-25T00:22:42;20.00;99.90
666;DHT22;315;48.738;9.126;2022-08-25T00:25:08;20.00;99.90
666;DHT22;315;48.738;9.126;2022-08-25T00:27:34;20.00;99.90
666;DHT22;315;48.738;9.126;2022-08-25T00:29:59;19.90;99.90
666;DHT22;315;48.738;9.126;2022-08-25T00:32:25;20.00;99.90
666;DHT22;315;48.738;9.126;2022-08-25T00:34:51;20.00;99.90
666;DHT22;315;48.738;9.126;2022-08-25T00:37:18;19.90;99.90
666;DHT22;315;48.738;9.126;2022-08-25T00:39:43;20.00;99.90
666;DHT22;315;48.738;9.126;2022-08-25T00:42:09;20.00;99.90
666;DHT22;315;48.738;9.126;2022-08-25T00:44:34;19.90;99.90
666;DHT22;315;48.738;9.126;2022-08-25T00:47:02;19.90;99.90
666;DHT22;315;48.738;9.126;2022-08-25T00:52:28;19.70;99.90
666;DHT22;315;48.738;9.126;2022-08-25T00:57:55;19.70;99.90
666;DHT22;315;48.738;9.126;2022-08-25T01:00:26;19.70;99.90
666;DHT22;315;48.738;9.126;2022-08-25T01:02:52;19.70;99.90
666;DHT22;315;48.738;9.126;2022-08-25T01:05:18;19.60;99.90
666;DHT22;315;48.738;9.126;2022-08-25T01:07:45;19.60;99.90
666;DHT22;315;48.738;9.126;2022-08-25T01:10:11;19.60;99.90
666;DHT22;315;48.738;9.126;2022-08-25T01:12:38;19.60;99.90
666;DHT22;315;48.738;9.126;2022-08-25T01:15:06;19.60;99.90
666;DHT22;315;48.738;9.126;2022-08-25T01:17:36;19.60;99.90
666;DHT22;315;48.738;9.126;2022-08-25T01:20:03;19.50;99.90
666;DHT22;315;48.738;9.126;2022-08-25T01:22:29;19.50;99.90
666;DHT22;315;48.738;9.126;2022-08-25T01:25:01;19.40;99.90
666;DHT22;315;48.738;9.126;2022-08-25T01:27:28;19.30;99.90
666;DHT22;315;48.738;9.126;2022-08-25T01:29:54;19.10;99.90
666;DHT22;315;48.738;9.126;2022-08-25T01:32:19;18.90;99.90
666;DHT22;315;48.738;9.126;2022-08-25T01:34:45;18.80;99.90
666;DHT22;315;48.738;9.126;2022-08-25T01:37:13;18.60;99.90
666;DHT22;315;48.738;9.126;2022-08-25T01:39:41;18.60;99.90
666;DHT22;315;48.738;9.126;2022-08-25T01:42:08;18.60;99.90
666;DHT22;315;48.738;9.126;2022-08-25T01:44:41;19.20;99.90
666;DHT22;315;48.738;9.126;2022-08-25T01:47:08;18.70;99.90
666;DHT22;315;48.738;9.126;2022-08-25T01:49:34;18.80;99.90
666;DHT22;315;48.738;9.126;2022-08-25T01:52:24;18.90;99.90
666;DHT22;315;48.738;9.126;2022-08-25T01:54:52;18.90;99.90
666;DHT22;315;48.738;9.126;2022-08-25T01:57:17;19.00;99.90
666;DHT22;315;48.738;9.126;2022-08-25T01:59:43;19.00;99.90
666;DHT22;315;48.738;9.126;2022-08-25T02:02:09;19.00;99.90
666;DHT22;315;48.738;9.126;2022-08-25T02:04:34;18.80;99.90
666;DHT22;315;48.738;9.126;2022-08-25T02:07:02;18.80;99.90
666;DHT22;315;48.738;9.126;2022-08-25T02:09:29;18.80;99.90
666;DHT22;315;48.738;9.126;2022-08-25T02:11:54;18.80;99.90
666;DHT22;315;48.738;9.126;2022-08-25T02:14:21;19.00;99.90
666;DHT22;315;48.738;9.126;2022-08-25T02:16:49;18.90;99.90
666;DHT22;315;48.738;9.126;2022-08-25T02:19:16;18.60;99.90
666;DHT22;315;48.738;9.126;2022-08-25T02:21:42;18.70;99.90
666;DHT22;315;48.738;9.126;2022-08-25T02:24:09;18.70;99.90
666;DHT22;315;48.738;9.126;2022-08-25T02:26:36;18.70;99.90
666;DHT22;315;48.738;9.126;2022-08-25T02:29:04;18.70;99.90
666;DHT22;315;48.738;9.126;2022-08-25T02:31:30;18.70;99.90
666;DHT22;315;48.738;9.126;2022-08-25T02:33:56;18.70;99.90
666;DHT22;315;48.738;9.126;2022-08-25T02:36:22;18.80;99.90
666;DHT22;315;48.738;9.126;2022-08-25T02:38:48;18.80;99.90
666;DHT22;315;48.738;9.126;2022-08-25T02:41:18;18.70;99.90
666;DHT22;315;48.738;9.126;2022-08-25T02:43:45;18.70;99.90
666;DHT22;315;48.738;9.126;2022-08-25T02:46:13;18.70;99.90
666;DHT22;315;48.738;9.126;2022-08-25T02:48:40;18.60;99.90
666;DHT22;315;48.738;9.126;2022-08-25T02:51:06;18.60;99.90
666;DHT22;315;48.738;9.126;2022-08-25T02:53:33;18.60;99.90
666;DHT22;315;48.738;9.126;2022-08-25T02:55:59;18.50;99.90
666;DHT22;315;48.738;9.126;2022-08-25T02:58:24;18.50;99.90
666;DHT22;315;48.738;9.126;2022-08-25T03:00:50;18.40;99.90
666;DHT22;315;48.738;9.126;2022-08-25T03:03:16;18.30;99.90
666;DHT22;315;48.738;9.126;2022-08-25T03:05:42;18.30;99.90
666;DHT22;315;48.738;9.126;2022-08-25T03:08:08;18.50;99.90
666;DHT22;315;48.738;9.126;2022-08-25T03:10:35;18.20;99.90
666;DHT22;315;48.738;9.126;2022-08-25T03:13:01;18.20;99.90
666;DHT22;315;48.738;9.126;2022-08-25T03:15:26;18.00;99.90
666;DHT22;315;48.738;9.126;2022-08-25T03:17:54;18.10;99.90
666;DHT22;315;48.738;9.126;2022-08-25T03:20:21;18.10;99.90
666;DHT22;315;48.738;9.126;2022-08-25T03:22:46;18.10;99.90
666;DHT22;315;48.738;9.126;2022-08-25T03:25:13;18.00;99.90
666;DHT22;315;48.738;9.126;2022-08-25T03:27:57;18.00;99.90
666;DHT22;315;48.738;9.126;2022-08-25T03:30:23;18.00;99.90
666;DHT22;315;48.738;9.126;2022-08-25T03:32:50;18.00;99.90
666;DHT22;315;48.738;9.126;2022-08-25T03:35:16;17.90;99.90
666;DHT22;315;48.738;9.126;2022-08-25T03:37:41;18.00;99.90
666;DHT22;315;48.738;9.126;2022-08-25T03:40:10;18.00;99.90
666;DHT22;315;48.738;9.126;2022-08-25T03:42:40;18.00;99.90
666;DHT22;315;48.738;9.126;2022-08-25T03:45:06;18.00;99.90
666;DHT22;315;48.738;9.126;2022-08-25T03:47:32;18.10;99.90
666;DHT22;315;48.738;9.126;2022-08-25T03:49:58;18.00;99.90
666;DHT22;315;48.738;9.126;2022-08-25T03:52:24;18.00;99.90
666;DHT22;315;48.738;9.126;2022-08-25T03:54:50;18.60;99.90
666;DHT22;315;48.738;9.126;2022-08-25T03:57:16;18.00;99.90
666;DHT22;315;48.738;9.126;2022-08-25T03:59:41;17.80;99.90
666;DHT22;315;48.738;9.126;2022-08-25T04:02:07;17.70;99.90
666;DHT22;315;48.738;9.126;2022-08-25T04:04:33;17.60;99.90
666;DHT22;315;48.738;9.126;2022-08-25T04:06:59;17.60;99.90
666;DHT22;315;48.738;9.126;2022-08-25T04:09:25;17.70;99.90
666;DHT22;315;48.738;9.126;2022-08-25T04:11:51;17.60;99.90
666;DHT22;315;48.738;9.126;2022-08-25T04:14:17;17.50;99.90
666;DHT22;315;48.738;9.126;2022-08-25T04:16:44;17.50;99.90
666;DHT22;315;48.738;9.126;2022-08-25T04:19:10;17.40;99.90
666;DHT22;315;48.738;9.126;2022-08-25T04:21:36;17.40;99.90
666;DHT22;315;48.738;9.126;2022-08-25T04:24:04;17.30;99.90
666;DHT22;315;48.738;9.126;2022-08-25T04:26:33;17.20;99.90
666;DHT22;315;48.738;9.126;2022-08-25T04:29:00;17.20;99.90
666;DHT22;315;48.738;9.126;2022-08-25T04:31:29;17.20;99.90
666;DHT22;315;48.738;9.126;2022-08-25T04:33:55;17.30;99.90
666;DHT22;315;48.738;9.126;2022-08-25T04:36:21;17.60;99.90
666;DHT22;315;48.738;9.126;2022-08-25T04:38:48;17.40;99.90
666;DHT22;315;48.738;9.126;2022-08-25T04:41:16;17.70;99.90
666;DHT22;315;48.738;9.126;2022-08-25T04:43:42;17.50;99.90
666;DHT22;315;48.738;9.126;2022-08-25T04:46:14;17.40;99.90
666;DHT22;315;48.738;9.126;2022-08-25T04:48:40;17.40;99.90
666;DHT22;315;48.738;9.126;2022-08-25T04:51:12;17.40;99.90
666;DHT22;315;48.738;9.126;2022-08-25T04:53:38;17.40;99.90
666;DHT22;315;48.738;9.126;2022-08-25T04:56:06;17.40;99.90
666;DHT22;315;48.738;9.126;2022-08-25T04:58:33;17.50;99.90
666;DHT22;315;48.738;9.126;2022-08-25T05:01:10;17.60;99.90
666;DHT22;315;48.738;9.126;2022-08-25T05:03:36;17.70;99.90
666;DHT22;315;48.738;9.126;2022-08-25T05:06:03;17.80;99.90
666;DHT22;315;48.738;9.126;2022-08-25T05:08:29;17.90;99.90
666;DHT22;315;48.738;9.126;2022-08-25T05:10:55;18.20;99.90
666;DHT22;315;48.738;9.126;2022-08-25T05:13:23;18.30;99.90
666;DHT22;315;48.738;9.126;2022-08-25T05:15:57;18.50;99.90
666;DHT22;315;48.738;9.126;2022-08-25T05:18:24;18.50;99.90
666;DHT22;315;48.738;9.126;2022-08-25T05:20:52;18.60;99.90
666;DHT22;315;48.738;9.126;2022-08-25T05:23:19;18.70;99.90
666;DHT22;315;48.738;9.126;2022-08-25T05:25:45;19.00;99.90
666;DHT22;315;48.738;9.126;2022-08-25T05:28:11;19.10;99.90
666;DHT22;315;48.738;9.126;2022-08-25T05:30:38;19.30;99.90
666;DHT22;315;48.738;9.126;2022-08-25T05:33:04;19.40;99.90
666;DHT22;315;48.738;9.126;2022-08-25T05:35:30;19.40;99.90
666;DHT22;315;48.738;9.126;2022-08-25T05:37:56;19.80;99.90
666;DHT22;315;48.738;9.126;2022-08-25T05:40:22;19.60;99.90
666;DHT22;315;48.738;9.126;2022-08-25T05:42:49;19.80;99.90
666;DHT22;315;48.738;9.126;2022-08-25T05:45:15;20.10;99.90
666;DHT22;315;48.738;9.126;2022-08-25T05:47:42;20.20;99.90
666;DHT22;315;48.738;9.126;2022-08-25T05:50:08;20.30;99.90
666;DHT22;315;48.738;9.126;2022-08-25T05:52:33;20.30;99.90
666;DHT22;315;48.738;9.126;2022-08-25T05:54:59;20.40;99.90
666;DHT22;315;48.738;9.126;2022-08-25T05:57:25;20.50;99.90
666;DHT22;315;48.738;9.126;2022-08-25T05:59:50;20.60;99.90
666;DHT22;315;48.738;9.126;2022-08-25T06:02:16;20.60;99.90
666;DHT22;315;48.738;9.126;2022-08-25T06:05:00;20.80;99.90
666;DHT22;315;48.738;9.126;2022-08-25T06:07:26;21.00;99.90
666;DHT22;315;48.738;9.126;2022-08-25T06:09:51;21.20;99.90
666;DHT22;315;48.738;9.126;2022-08-25T06:12:17;21.40;99.90
666;DHT22;315;48.738;9.126;2022-08-25T06:14:43;21.50;99.90
666;DHT22;315;48.738;9.126;2022-08-25T06:17:09;21.50;99.90
666;DHT22;315;48.738;9.126;2022-08-25T06:19:35;21.50;99.90
666;DHT22;315;48.738;9.126;2022-08-25T06:22:02;21.60;99.90
666;DHT22;315;48.738;9.126;2022-08-25T06:24:28;21.70;99.90
666;DHT22;315;48.738;9.126;2022-08-25T06:26:54;21.90;99.90
666;DHT22;315;48.738;9.126;2022-08-25T06:29:20;22.10;99.90
666;DHT22;315;48.738;9.126;2022-08-25T06:31:46;22.50;99.90
666;DHT22;315;48.738;9.126;2022-08-25T06:34:12;22.50;99.90
666;DHT22;315;48.738;9.126;2022-08-25T06:36:38;22.80;99.90
666;DHT22;315;48.738;9.126;2022-08-25T06:39:04;23.00;99.90
666;DHT22;315;48.738;9.126;2022-08-25T06:41:30;22.90;99.90
666;DHT22;315;48.738;9.126;2022-08-25T06:43:57;23.00;99.90
666;DHT22;315;48.738;9.126;2022-08-25T06:46:25;23.20;99.90
666;DHT22;315;48.738;9.126;2022-08-25T06:48:55;23.30;99.90
666;DHT22;315;48.738;9.126;2022-08-25T06:51:22;23.40;99.90
666;DHT22;315;48.738;9.126;2022-08-25T06:53:49;23.50;99.90
666;DHT22;315;48.738;9.126;2022-08-25T06:56:17;23.70;99.90
666;DHT22;315;48.738;9.126;2022-08-25T06:58:42;23.80;99.90
666;DHT22;315;48.738;9.126;2022-08-25T07:01:11;23.80;99.90
666;DHT22;315;48.738;9.126;2022-08-25T07:03:36;24.00;99.90
666;DHT22;315;48.738;9.126;2022-08-25T07:06:03;24.00;99.90
666;DHT22;315;48.738;9.126;2022-08-25T07:08:29;24.20;99.90
666;DHT22;315;48.738;9.126;2022-08-25T07:10:55;24.40;99.90
666;DHT22;315;48.738;9.126;2022-08-25T07:13:20;24.50;99.90
666;DHT22;315;48.738;9.126;2022-08-25T07:15:46;24.60;99.90
666;DHT22;315;48.738;9.126;2022-08-25T07:18:11;24.80;99.90
666;DHT22;315;48.738;9.126;2022-08-25T07:20:38;24.90;99.90
666;DHT22;315;48.738;9.126;2022-08-25T07:23:04;25.00;99.90
666;DHT22;315;48.738;9.126;2022-08-25T07:25:30;25.00;99.90
666;DHT22;315;48.738;9.126;2022-08-25T07:27:56;25.20;99.90
666;DHT22;315;48.738;9.126;2022-08-25T07:30:21;25.30;99.90
666;DHT22;315;48.738;9.126;2022-08-25T07:32:47;25.50;99.90
666;DHT22;315;48.738;9.126;2022-08-25T07:35:13;25.50;99.90
666;DHT22;315;48.738;9.126;2022-08-25T07:37:48;25.60;99.90
666;DHT22;315;48.738;9.126;2022-08-25T07:40:17;25.50;99.90
666;DHT22;315;48.738;9.126;2022-08-25T07:42:44;25.70;99.90
666;DHT22;315;48.738;9.126;2022-08-25T07:45:11;25.70;99.90
666;DHT22;315;48.738;9.126;2022-08-25T07:47:37;25.50;99.90
666;DHT22;315;48.738;9.126;2022-08-25T07:50:05;25.60;99.90
666;DHT22;315;48.738;9.126;2022-08-25T07:52:30;25.80;99.90
666;DHT22;315;48.738;9.126;2022-08-25T07:54:56;25.80;99.90
666;DHT22;315;48.738;9.126;2022-08-25T07:57:22;25.50;99.90
666;DHT22;315;48.738;9.126;2022-08-25T07:59:50;25.70;99.90
666;DHT22;315;48.738;9.126;2022-08-25T08:02:16;26.20;99.90
666;DHT22;315;48.738;9.126;2022-08-25T08:04:42;26.40;99.90
666;DHT22;315;48.738;9.126;2022-08-25T08:07:09;26.70;99.90
666;DHT22;315;48.738;9.126;2022-08-25T08:09:35;26.70;99.90
666;DHT22;315;48.738;9.126;2022-08-25T08:12:02;26.70;99.90
666;DHT22;315;48.738;9.126;2022-08-25T08:14:28;26.70;99.90
666;DHT22;315;48.738;9.126;2022-08-25T08:16:53;26.90;99.90
666;DHT22;315;48.738;9.126;2022-08-25T08:19:19;27.00;99.90
666;DHT22;315;48.738;9.126;2022-08-25T08:21:45;27.20;99.90
666;DHT22;315;48.738;9.126;2022-08-25T08:24:11;27.40;99.90
666;DHT22;315;48.738;9.126;2022-08-25T08:26:36;27.20;99.90
666;DHT22;315;48.738;9.126;2022-08-25T08:29:02;27.20;99.90
666;DHT22;315;48.738;9.126;2022-08-25T08:31:28;27.30;99.90
666;DHT22;315;48.738;9.126;2022-08-25T08:33:55;27.20;99.90
666;DHT22;315;48.738;9.126;2022-08-25T08:36:22;27.40;99.90
666;DHT22;315;48.738;9.126;2022-08-25T08:38:48;27.50;99.90
666;DHT22;315;48.738;9.126;2022-08-25T08:53:00;28.00;99.90
666;DHT22;315;48.738;9.126;2022-08-25T08:55:29;28.30;99.80
666;DHT22;315;48.738;9.126;2022-08-25T08:57:58;28.30;99.90
666;DHT22;315;48.738;9.126;2022-08-25T09:00:25;28.30;99.90
666;DHT22;315;48.738;9.126;2022-08-25T09:05:28;27.90;99.90
666;DHT22;315;48.738;9.126;2022-08-25T09:08:02;28.30;99.90
666;DHT22;315;48.738;9.126;2022-08-25T09:10:42;28.20;99.00
666;DHT22;315;48.738;9.126;2022-08-25T09:13:26;27.70;99.90
666;DHT22;315;48.738;9.126;2022-08-25T09:16:08;28.30;99.50
666;DHT22;315;48.738;9.126;2022-08-25T09:19:02;29.40;98.20
666;DHT22;315;48.738;9.126;2022-08-25T09:22:06;30.20;96.30
666;DHT22;315;48.738;9.126;2022-08-25T09:27:56;31.40;93.40
666;DHT22;315;48.738;9.126;2022-08-25T09:30:26;31.80;92.60
666;DHT22;315;48.738;9.126;2022-08-25T09:32:54;32.70;91.10
666;DHT22;315;48.738;9.126;2022-08-25T09:35:31;33.40;88.30
666;DHT22;315;48.738;9.126;2022-08-25T09:38:11;33.90;85.00
666;DHT22;315;48.738;9.126;2022-08-25T09:40:49;34.60;80.30
666;DHT22;315;48.738;9.126;2022-08-25T09:43:35;34.60;78.10
666;DHT22;315;48.738;9.126;2022-08-25T09:48:30;34.70;71.90
666;DHT22;315;48.738;9.126;2022-08-25T09:51:17;35.30;71.20
666;DHT22;315;48.738;9.126;2022-08-25T09:56:13;37.10;65.20
666;DHT22;315;48.738;9.126;2022-08-25T09:58:38;37.30;63.10
666;DHT22;315;48.738;9.126;2022-08-25T10:01:12;37.00;62.60
666;DHT22;315;48.738;9.126;2022-08-25T10:06:18;37.10;60.80
666;DHT22;315;48.738;9.126;2022-08-25T10:11:14;38.40;57.70
666;DHT22;315;48.738;9.126;2022-08-25T10:14:06;38.60;57.60
666;DHT22;315;48.738;9.126;2022-08-25T10:16:32;38.70;57.00
666;DHT22;315;48.738;9.126;2022-08-25T10:19:11;39.20;54.70
666;DHT22;315;48.738;9.126;2022-08-25T10:21:41;39.80;53.00
666;DHT22;315;48.738;9.126;2022-08-25T10:24:09;40.20;51.90
666;DHT22;315;48.738;9.126;2022-08-25T10:26:54;40.70;51.20
666;DHT22;315;48.738;9.126;2022-08-25T10:29:54;40.60;50.50
666;DHT22;315;48.738;9.126;2022-08-25T10:34:58;40.20;50.70
666;DHT22;315;48.738;9.126;2022-08-25T10:37:50;39.90;50.60
666;DHT22;315;48.738;9.126;2022-08-25T10:40:39;39.30;50.50
666;DHT22;315;48.738;9.126;2022-08-25T10:49:10;38.50;50.50
666;DHT22;315;48.738;9.126;2022-08-25T10:52:12;40.50;48.60
666;DHT22;315;48.738;9.126;2022-08-25T10:54:53;41.30;46.80
666;DHT22;315;48.738;9.126;2022-08-25T11:07:52;37.10;49.80
666;DHT22;315;48.738;9.126;2022-08-25T11:10:24;38.40;49.30
666;DHT22;315;48.738;9.126;2022-08-25T11:12:56;39.50;48.20
666;DHT22;315;48.738;9.126;2022-08-25T11:15:41;41.00;46.00
666;DHT22;315;48.738;9.126;2022-08-25T11:18:12;41.30;46.20
666;DHT22;315;48.738;9.126;2022-08-25T11:21:14;42.40;44.70
666;DHT22;315;48.738;9.126;2022-08-25T11:23:49;42.20;43.90
666;DHT22;315;48.738;9.126;2022-08-25T11:26:21;42.40;44.00
666;DHT22;315;48.738;9.126;2022-08-25T11:29:13;42.70;44.10
666;DHT22;315;48.738;9.126;2022-08-25T11:31:44;43.20;44.00
666;DHT22;315;48.738;9.126;2022-08-25T11:34:11;44.10;44.20
666;DHT22;315;48.738;9.126;2022-08-25T11:36:58;45.00;42.50
666;DHT22;315;48.738;9.126;2022-08-25T11:49:57;42.90;41.90
666;DHT22;315;48.738;9.126;2022-08-25T11:55:18;43.60;42.00
666;DHT22;315;48.738;9.126;2022-08-25T11:57:47;43.70;40.90
666;DHT22;315;48.738;9.126;2022-08-25T12:00:14;41.60;42.20
666;DHT22;315;48.738;9.126;2022-08-25T12:02:58;40.00;43.00
666;DHT22;315;48.738;9.126;2022-08-25T12:11:00;42.30;41.90
666;DHT22;315;48.738;9.126;2022-08-25T12:13:39;43.90;39.40
666;DHT22;315;48.738;9.126;2022-08-25T12:16:06;44.30;39.10
666;DHT22;315;48.738;9.126;2022-08-25T12:26:12;43.50;40.00
666;DHT22;315;48.738;9.126;2022-08-25T12:29:10;43.50;39.60
666;DHT22;315;48.738;9.126;2022-08-25T12:37:23;43.40;40.80
666;DHT22;315;48.738;9.126;2022-08-25T12:42:40;43.50;40.00
666;DHT22;315;48.738;9.126;2022-08-25T12:47:50;43.80;39.10
666;DHT22;315;48.738;9.126;2022-08-25T12:50:41;45.30;37.90
666;DHT22;315;48.738;9.126;2022-08-25T12:55:59;46.00;37.40
666;DHT22;315;48.738;9.126;2022-08-25T12:58:45;45.30;37.30
666;DHT22;315;48.738;9.126;2022-08-25T13:01:51;46.10;37.20
666;DHT22;315;48.738;9.126;2022-08-25T13:07:25;47.50;36.50
666;DHT22;315;48.738;9.126;2022-08-25T13:16:02;48.90;33.00
666;DHT22;315;48.738;9.126;2022-08-25T13:18:21;49.20;32.20
666;DHT22;315;48.738;9.126;2022-08-25T13:20:50;49.70;31.00
666;DHT22;315;48.738;9.126;2022-08-25T13:23:25;49.40;30.70
666;DHT22;315;48.738;9.126;2022-08-25T13:25:52;49.50;31.10
666;DHT22;315;48.738;9.126;2022-08-25T13:28:28;49.70;31.00
666;DHT22;315;48.738;9.126;2022-08-25T13:31:01;49.60;30.80
666;DHT22;315;48.738;9.126;2022-08-25T13:33:27;47.00;31.60
666;DHT22;315;48.738;9.126;2022-08-25T13:35:55;46.00;32.80
666;DHT22;315;48.738;9.126;2022-08-25T13:38:40;45.90;32.60
666;DHT22;315;48.738;9.126;2022-08-25T13:41:07;44.70;32.60
666;DHT22;315;48.738;9.126;2022-08-25T13:43:34;42.60;34.20
666;DHT22;315;48.738;9.126;2022-08-25T13:46:00;40.00;36.60
666;DHT22;315;48.738;9.126;2022-08-25T13:48:38;37.90;38.80
666;DHT22;315;48.738;9.126;2022-08-25T13:51:25;37.00;40.40
666;DHT22;315;48.738;9.126;2022-08-25T13:53:57;36.90;41.40
666;DHT22;315;48.738;9.126;2022-08-25T13:56:34;37.40;40.50
666;DHT22;315;48.738;9.126;2022-08-25T13:59:02;37.80;40.40
666;DHT22;315;48.738;9.126;2022-08-25T14:01:33;37.50;40.10
666;DHT22;315;48.738;9.126;2022-08-25T14:04:43;37.20;40.40
666;DHT22;315;48.738;9.126;2022-08-25T14:09:55;35.50;41.40
666;DHT22;315;48.738;9.126;2022-08-25T14:12:40;34.40;42.70
666;DHT22;315;48.738;9.126;2022-08-25T14:17:57;34.20;43.60
666;DHT22;315;48.738;9.126;2022-08-25T14:20:26;34.10;44.60
666;DHT22;315;48.738;9.126;2022-08-25T14:22:55;33.80;44.90
666;DHT22;315;48.738;9.126;2022-08-25T14:25:23;33.60;44.90
666;DHT22;315;48.738;9.126;2022-08-25T14:28:03;33.50;44.40
666;DHT22;315;48.738;9.126;2022-08-25T14:30:30;33.40;44.60
666;DHT22;315;48.738;9.126;2022-08-25T14:32:57;33.50;44.60
666;DHT22;315;48.738;9.126;2022-08-25T14:35:23;33.20;44.80
666;DHT22;315;48.738;9.126;2022-08-25T14:37:49;32.70;45.20
666;DHT22;315;48.738;9.126;2022-08-25T14:40:14;32.70;45.70
666;DHT22;315;48.738;9.126;2022-08-25T14:42:45;32.50;45.90
666;DHT22;315;48.738;9.126;2022-08-25T14:45:10;32.40;45.70
666;DHT22;315;48.738;9.126;2022-08-25T14:47:36;32.30;46.00
666;DHT22;315;48.738;9.126;2022-08-25T14:50:02;32.10;46.50
666;DHT22;315;48.738;9.126;2022-08-25T14:52:28;31.70;47.20
666;DHT22;315;48.738;9.126;2022-08-25T14:54:54;31.60;47.70
666;DHT22;315;48.738;9.126;2022-08-25T14:57:22;31.60;47.60
666;DHT22;315;48.738;9.126;2022-08-25T14:59:47;31.60;47.30
666;DHT22;315;48.738;9.126;2022-08-25T15:02:14;31.70;47.60
666;DHT22;315;48.738;9.126;2022-08-25T15:04:47;31.50;47.60
666;DHT22;315;48.738;9.126;2022-08-25T15:07:14;31.20;47.10
666;DHT22;315;48.738;9.126;2022-08-25T15:09:58;31.00;47.30
666;DHT22;315;48.738;9.126;2022-08-25T15:12:24;31.00;46.40
666;DHT22;315;48.738;9.126;2022-08-25T15:14:49;30.90;47.00
666;DHT22;315;48.738;9.126;2022-08-25T15:17:15;31.00;47.50
666;DHT22;315;48.738;9.126;2022-08-25T15:19:41;30.90;47.40
666;DHT22;315;48.738;9.126;2022-08-25T15:22:07;31.00;47.40
666;DHT22;315;48.738;9.126;2022-08-25T15:24:32;31.10;47.50
666;DHT22;315;48.738;9.126;2022-08-25T15:27:00;31.00;47.70
666;DHT22;315;48.738;9.126;2022-08-25T15:29:28;30.90;48.10
666;DHT22;315;48.738;9.126;2022-08-25T15:31:55;30.70;48.60
666;DHT22;315;48.738;9.126;2022-08-25T15:34:21;30.70;48.90
666;DHT22;315;48.738;9.126;2022-08-25T15:36:47;30.70;48.90
666;DHT22;315;48.738;9.126;2022-08-25T15:39:12;30.70;49.00
666;DHT22;315;48.738;9.126;2022-08-25T15:41:38;30.80;49.10
666;DHT22;315;48.738;9.126;2022-08-25T15:44:05;30.80;49.50
666;DHT22;315;48.738;9.126;2022-08-25T15:46:32;31.00;49.30
666;DHT22;315;48.738;9.126;2022-08-25T15:48:59;31.20;49.90
666;DHT22;315;48.738;9.126;2022-08-25T15:51:26;31.10;50.10
666;DHT22;315;48.738;9.126;2022-08-25T15:53:53;31.00;50.20
666;DHT22;315;48.738;9.126;2022-08-25T15:56:19;30.90;49.90
666;DHT22;315;48.738;9.126;2022-08-25T15:58:46;30.70;50.40
666;DHT22;315;48.738;9.126;2022-08-25T16:01:17;30.50;50.70
666;DHT22;315;48.738;9.126;2022-08-25T16:03:43;30.50;50.80
666;DHT22;315;48.738;9.126;2022-08-25T16:06:10;30.50;50.80
666;DHT22;315;48.738;9.126;2022-08-25T16:08:36;30.60;51.00
666;DHT22;315;48.738;9.126;2022-08-25T16:11:03;30.40;50.70
666;DHT22;315;48.738;9.126;2022-08-25T16:13:29;30.40;51.00
666;DHT22;315;48.738;9.126;2022-08-25T16:15:54;30.20;50.90
666;DHT22;315;48.738;9.126;2022-08-25T16:18:21;30.10;51.30
666;DHT22;315;48.738;9.126;2022-08-25T16:20:47;30.10;50.90
666;DHT22;315;48.738;9.126;2022-08-25T16:23:14;30.00;51.20
666;DHT22;315;48.738;9.126;2022-08-25T16:25:42;29.90;51.40
666;DHT22;315;48.738;9.126;2022-08-25T16:28:09;29.90;51.60
666;DHT22;315;48.738;9.126;2022-08-25T16:30:36;29.60;52.20
666;DHT22;315;48.738;9.126;2022-08-25T16:33:05;29.40;52.60
666;DHT22;315;48.738;9.126;2022-08-25T16:35:31;29.40;52.70
666;DHT22;315;48.738;9.126;2022-08-25T16:37:57;29.40;52.80
666;DHT22;315;48.738;9.126;2022-08-25T16:40:22;29.50;52.90
666;DHT22;315;48.738;9.126;2022-08-25T16:42:53;29.30;53.30
666;DHT22;315;48.738;9.126;2022-08-25T16:45:19;29.30;53.10
666;DHT22;315;48.738;9.126;2022-08-25T16:47:45;29.30;53.20
666;DHT22;315;48.738;9.126;2022-08-25T16:50:11;29.30;53.20
666;DHT22;315;48.738;9.126;2022-08-25T16:52:37;29.20;53.30
666;DHT22;315;48.738;9.126;2022-08-25T16:55:22;29.20;53.70
666;DHT22;315;48.738;9.126;2022-08-25T16:57:49;29.10;54.10
666;DHT22;315;48.738;9.126;2022-08-25T17:00:23;29.10;54.30
666;DHT22;315;48.738;9.126;2022-08-25T17:02:54;28.90;55.00
666;DHT22;315;48.738;9.126;2022-08-25T17:05:20;28.90;54.80
666;DHT22;315;48.738;9.126;2022-08-25T17:07:45;28.90;55.00
666;DHT22;315;48.738;9.126;2022-08-25T17:10:39;28.90;54.90
666;DHT22;315;48.738;9.126;2022-08-25T17:13:05;28.80;54.80
666;DHT22;315;48.738;9.126;2022-08-25T17:15:31;28.80;55.00
666;DHT22;315;48.738;9.126;2022-08-25T17:17:57;28.70;55.30
666;DHT22;315;48.738;9.126;2022-08-25T17:20:22;28.70;55.80
666;DHT22;315;48.738;9.126;2022-08-25T17:22:48;28.60;55.90
666;DHT22;315;48.738;9.126;2022-08-25T17:25:15;28.60;55.50
666;DHT22;315;48.738;9.126;2022-08-25T17:27:40;28.60;55.70
666;DHT22;315;48.738;9.126;2022-08-25T17:30:06;28.70;56.00
666;DHT22;315;48.738;9.126;2022-08-25T17:32:32;28.60;56.10
666;DHT22;315;48.738;9.126;2022-08-25T17:34:58;28.50;55.90
666;DHT22;315;48.738;9.126;2022-08-25T17:37:23;28.50;56.20
666;DHT22;315;48.738;9.126;2022-08-25T17:39:49;28.40;56.70
666;DHT22;315;48.738;9.126;2022-08-25T17:42:14;28.30;57.10
666;DHT22;315;48.738;9.126;2022-08-25T17:44:40;28.30;57.50
666;DHT22;315;48.738;9.126;2022-08-25T17:47:05;28.30;57.70
666;DHT22;315;48.738;9.126;2022-08-25T17:49:31;28.30;58.00
666;DHT22;315;48.738;9.126;2022-08-25T17:51:57;28.30;58.30
666;DHT22;315;48.738;9.126;2022-08-25T17:54:23;28.20;58.50
666;DHT22;315;48.738;9.126;2022-08-25T17:56:49;28.10;58.50
666;DHT22;315;48.738;9.126;2022-08-25T17:59:14;28.10;58.80
666;DHT22;315;48.738;9.126;2022-08-25T18:01:41;28.00;59.40
666;DHT22;315;48.738;9.126;2022-08-25T18:04:07;27.90;59.80
666;DHT22;315;48.738;9.126;2022-08-25T18:06:33;27.90;60.50
666;DHT22;315;48.738;9.126;2022-08-25T18:08:59;27.80;61.00
666;DHT22;315;48.738;9.126;2022-08-25T18:11:26;27.70;61.70
666;DHT22;315;48.738;9.126;2022-08-25T18:13:53;27.60;62.60
666;DHT22;315;48.738;9.126;2022-08-25T18:16:20;27.60;63.60
666;DHT22;315;48.738;9.126;2022-08-25T18:18:45;27.50;64.00
666;DHT22;315;48.738;9.126;2022-08-25T18:21:14;27.50;64.90
666;DHT22;315;48.738;9.126;2022-08-25T18:23:40;27.30;65.70
666;DHT22;315;48.738;9.126;2022-08-25T18:26:07;27.20;66.80
666;DHT22;315;48.738;9.126;2022-08-25T18:28:33;27.10;67.60
666;DHT22;315;48.738;9.126;2022-08-25T18:30:59;26.90;68.60
666;DHT22;315;48.738;9.126;2022-08-25T18:33:24;26.80;69.80